<?xml version="1.0" encoding="UTF-8" standalone="no" ?>
<gpx xmlns="http://www.topografix.com/GPX/1/1" xmlns:xsi="http://www.w3.org/2001/XMLSchema-instance" xsi:schemaLocation="http://www.topografix.com/GPX/1/1 http://www.topografix.com/GPX/1/1/gpx.xsd" version="1.1" creator="VisuGPX - https://www.visugpx.com">
  <metadata>
    <name>23/11/2014</name>
    <desc><![CDATA[maison - camon]]></desc>
  </metadata>
  <trk>
    <name><![CDATA[Sequence 2]]></name>
    <trkseg>
      <trkpt lat="49.88738" lon="2.34379">
        <ele>25</ele>
        <time>2014-11-23T09:03:32Z</time>
      </trkpt>
      <trkpt lat="49.88738" lon="2.34374">
        <ele>27</ele>
        <time>2014-11-23T09:03:42Z</time>
      </trkpt>
      <trkpt lat="49.88745" lon="2.34365">
        <ele>27</ele>
        <time>2014-11-23T09:03:54Z</time>
      </trkpt>
      <trkpt lat="49.88751" lon="2.34357">
        <ele>27</ele>
        <time>2014-11-23T09:04:04Z</time>
      </trkpt>
      <trkpt lat="49.88761" lon="2.34349">
        <ele>28</ele>
        <time>2014-11-23T09:04:15Z</time>
      </trkpt>
      <trkpt lat="49.88768" lon="2.34337">
        <ele>25</ele>
        <time>2014-11-23T09:04:26Z</time>
      </trkpt>
      <trkpt lat="49.88782" lon="2.34321">
        <ele>25</ele>
        <time>2014-11-23T09:04:42Z</time>
      </trkpt>
      <trkpt lat="49.8879" lon="2.34313">
        <ele>24</ele>
        <time>2014-11-23T09:04:50Z</time>
      </trkpt>
      <trkpt lat="49.88797" lon="2.34302">
        <ele>25</ele>
        <time>2014-11-23T09:04:59Z</time>
      </trkpt>
      <trkpt lat="49.88805" lon="2.3429">
        <ele>28</ele>
        <time>2014-11-23T09:05:10Z</time>
      </trkpt>
      <trkpt lat="49.88818" lon="2.34288">
        <ele>25</ele>
        <time>2014-11-23T09:05:21Z</time>
      </trkpt>
      <trkpt lat="49.88832" lon="2.3428">
        <ele>23</ele>
        <time>2014-11-23T09:05:33Z</time>
      </trkpt>
      <trkpt lat="49.88841" lon="2.3427">
        <ele>28</ele>
        <time>2014-11-23T09:05:44Z</time>
      </trkpt>
      <trkpt lat="49.88851" lon="2.34263">
        <ele>29</ele>
        <time>2014-11-23T09:05:54Z</time>
      </trkpt>
      <trkpt lat="49.88869" lon="2.34248">
        <ele>35</ele>
        <time>2014-11-23T09:06:11Z</time>
      </trkpt>
      <trkpt lat="49.88875" lon="2.34245">
        <ele>32</ele>
        <time>2014-11-23T09:06:17Z</time>
      </trkpt>
      <trkpt lat="49.88891" lon="2.34232">
        <ele>30</ele>
        <time>2014-11-23T09:06:33Z</time>
      </trkpt>
      <trkpt lat="49.88897" lon="2.34226">
        <ele>31</ele>
        <time>2014-11-23T09:06:38Z</time>
      </trkpt>
      <trkpt lat="49.88908" lon="2.34217">
        <ele>28</ele>
        <time>2014-11-23T09:06:50Z</time>
      </trkpt>
      <trkpt lat="49.88917" lon="2.34208">
        <ele>26</ele>
        <time>2014-11-23T09:07:00Z</time>
      </trkpt>
      <trkpt lat="49.88927" lon="2.34185">
        <ele>28</ele>
        <time>2014-11-23T09:07:17Z</time>
      </trkpt>
      <trkpt lat="49.88937" lon="2.34168">
        <ele>34</ele>
        <time>2014-11-23T09:07:30Z</time>
      </trkpt>
      <trkpt lat="49.88939" lon="2.34162">
        <ele>36</ele>
        <time>2014-11-23T09:07:34Z</time>
      </trkpt>
      <trkpt lat="49.88952" lon="2.34149">
        <ele>35</ele>
        <time>2014-11-23T09:07:48Z</time>
      </trkpt>
      <trkpt lat="49.8896" lon="2.34144">
        <ele>33</ele>
        <time>2014-11-23T09:07:56Z</time>
      </trkpt>
      <trkpt lat="49.8897" lon="2.34133">
        <ele>34</ele>
        <time>2014-11-23T09:08:06Z</time>
      </trkpt>
      <trkpt lat="49.88984" lon="2.34124">
        <ele>28</ele>
        <time>2014-11-23T09:08:17Z</time>
      </trkpt>
      <trkpt lat="49.89003" lon="2.34118">
        <ele>26</ele>
        <time>2014-11-23T09:08:34Z</time>
      </trkpt>
      <trkpt lat="49.89009" lon="2.34117">
        <ele>25</ele>
        <time>2014-11-23T09:08:39Z</time>
      </trkpt>
      <trkpt lat="49.89019" lon="2.3411">
        <ele>31</ele>
        <time>2014-11-23T09:08:50Z</time>
      </trkpt>
      <trkpt lat="49.89036" lon="2.34106">
        <ele>24</ele>
        <time>2014-11-23T09:09:05Z</time>
      </trkpt>
      <trkpt lat="49.89046" lon="2.34099">
        <ele>23</ele>
        <time>2014-11-23T09:09:14Z</time>
      </trkpt>
      <trkpt lat="49.89057" lon="2.34094">
        <ele>27</ele>
        <time>2014-11-23T09:09:24Z</time>
      </trkpt>
      <trkpt lat="49.89072" lon="2.34091">
        <ele>26</ele>
        <time>2014-11-23T09:09:38Z</time>
      </trkpt>
      <trkpt lat="49.89079" lon="2.34087">
        <ele>26</ele>
        <time>2014-11-23T09:09:45Z</time>
      </trkpt>
      <trkpt lat="49.8909" lon="2.3408">
        <ele>24</ele>
        <time>2014-11-23T09:09:57Z</time>
      </trkpt>
      <trkpt lat="49.891" lon="2.34073">
        <ele>26</ele>
        <time>2014-11-23T09:10:08Z</time>
      </trkpt>
      <trkpt lat="49.89109" lon="2.34063">
        <ele>25</ele>
        <time>2014-11-23T09:10:18Z</time>
      </trkpt>
      <trkpt lat="49.89117" lon="2.34051">
        <ele>25</ele>
        <time>2014-11-23T09:10:29Z</time>
      </trkpt>
      <trkpt lat="49.89125" lon="2.34038">
        <ele>26</ele>
        <time>2014-11-23T09:10:40Z</time>
      </trkpt>
      <trkpt lat="49.89135" lon="2.34026">
        <ele>26</ele>
        <time>2014-11-23T09:10:51Z</time>
      </trkpt>
      <trkpt lat="49.89143" lon="2.34014">
        <ele>25</ele>
        <time>2014-11-23T09:11:02Z</time>
      </trkpt>
      <trkpt lat="49.89154" lon="2.33999">
        <ele>24</ele>
        <time>2014-11-23T09:11:15Z</time>
      </trkpt>
      <trkpt lat="49.89163" lon="2.33992">
        <ele>26</ele>
        <time>2014-11-23T09:11:24Z</time>
      </trkpt>
      <trkpt lat="49.89171" lon="2.33981">
        <ele>28</ele>
        <time>2014-11-23T09:11:35Z</time>
      </trkpt>
      <trkpt lat="49.89182" lon="2.33971">
        <ele>25</ele>
        <time>2014-11-23T09:11:47Z</time>
      </trkpt>
      <trkpt lat="49.89193" lon="2.33964">
        <ele>26</ele>
        <time>2014-11-23T09:11:57Z</time>
      </trkpt>
      <trkpt lat="49.89202" lon="2.33954">
        <ele>25</ele>
        <time>2014-11-23T09:12:08Z</time>
      </trkpt>
      <trkpt lat="49.89211" lon="2.33941">
        <ele>26</ele>
        <time>2014-11-23T09:12:19Z</time>
      </trkpt>
      <trkpt lat="49.89224" lon="2.33923">
        <ele>27</ele>
        <time>2014-11-23T09:12:36Z</time>
      </trkpt>
      <trkpt lat="49.89236" lon="2.33911">
        <ele>28</ele>
        <time>2014-11-23T09:12:48Z</time>
      </trkpt>
      <trkpt lat="49.89245" lon="2.33903">
        <ele>28</ele>
        <time>2014-11-23T09:12:55Z</time>
      </trkpt>
      <trkpt lat="49.89255" lon="2.33892">
        <ele>21</ele>
        <time>2014-11-23T09:13:07Z</time>
      </trkpt>
      <trkpt lat="49.89265" lon="2.33881">
        <ele>24</ele>
        <time>2014-11-23T09:13:19Z</time>
      </trkpt>
      <trkpt lat="49.8927" lon="2.33876">
        <ele>22</ele>
        <time>2014-11-23T09:13:25Z</time>
      </trkpt>
      <trkpt lat="49.8928" lon="2.33863">
        <ele>22</ele>
        <time>2014-11-23T09:13:36Z</time>
      </trkpt>
      <trkpt lat="49.89291" lon="2.33851">
        <ele>23</ele>
        <time>2014-11-23T09:13:47Z</time>
      </trkpt>
      <trkpt lat="49.89301" lon="2.33839">
        <ele>24</ele>
        <time>2014-11-23T09:13:58Z</time>
      </trkpt>
      <trkpt lat="49.8931" lon="2.3383">
        <ele>23</ele>
        <time>2014-11-23T09:14:09Z</time>
      </trkpt>
      <trkpt lat="49.89322" lon="2.33823">
        <ele>24</ele>
        <time>2014-11-23T09:14:20Z</time>
      </trkpt>
      <trkpt lat="49.89332" lon="2.33812">
        <ele>24</ele>
        <time>2014-11-23T09:14:31Z</time>
      </trkpt>
      <trkpt lat="49.89342" lon="2.33804">
        <ele>21</ele>
        <time>2014-11-23T09:14:42Z</time>
      </trkpt>
      <trkpt lat="49.89353" lon="2.33796">
        <ele>21</ele>
        <time>2014-11-23T09:14:53Z</time>
      </trkpt>
      <trkpt lat="49.89363" lon="2.33787">
        <ele>22</ele>
        <time>2014-11-23T09:15:04Z</time>
      </trkpt>
      <trkpt lat="49.89373" lon="2.3378">
        <ele>22</ele>
        <time>2014-11-23T09:15:16Z</time>
      </trkpt>
      <trkpt lat="49.89388" lon="2.33764">
        <ele>21</ele>
        <time>2014-11-23T09:15:33Z</time>
      </trkpt>
      <trkpt lat="49.89395" lon="2.33761">
        <ele>23</ele>
        <time>2014-11-23T09:15:38Z</time>
      </trkpt>
      <trkpt lat="49.89407" lon="2.33752">
        <ele>24</ele>
        <time>2014-11-23T09:15:48Z</time>
      </trkpt>
      <trkpt lat="49.89415" lon="2.33741">
        <ele>23</ele>
        <time>2014-11-23T09:15:59Z</time>
      </trkpt>
      <trkpt lat="49.89421" lon="2.33731">
        <ele>20</ele>
        <time>2014-11-23T09:16:10Z</time>
      </trkpt>
      <trkpt lat="49.89431" lon="2.33719">
        <ele>21</ele>
        <time>2014-11-23T09:16:21Z</time>
      </trkpt>
      <trkpt lat="49.8944" lon="2.33705">
        <ele>23</ele>
        <time>2014-11-23T09:16:32Z</time>
      </trkpt>
      <trkpt lat="49.89448" lon="2.33691">
        <ele>23</ele>
        <time>2014-11-23T09:16:43Z</time>
      </trkpt>
      <trkpt lat="49.89457" lon="2.33677">
        <ele>23</ele>
        <time>2014-11-23T09:16:54Z</time>
      </trkpt>
      <trkpt lat="49.89466" lon="2.33665">
        <ele>22</ele>
        <time>2014-11-23T09:17:05Z</time>
      </trkpt>
      <trkpt lat="49.89475" lon="2.33653">
        <ele>23</ele>
        <time>2014-11-23T09:17:16Z</time>
      </trkpt>
      <trkpt lat="49.89483" lon="2.33641">
        <ele>24</ele>
        <time>2014-11-23T09:17:27Z</time>
      </trkpt>
      <trkpt lat="49.89491" lon="2.33628">
        <ele>25</ele>
        <time>2014-11-23T09:17:38Z</time>
      </trkpt>
      <trkpt lat="49.895" lon="2.33615">
        <ele>24</ele>
        <time>2014-11-23T09:17:49Z</time>
      </trkpt>
      <trkpt lat="49.89507" lon="2.33603">
        <ele>23</ele>
        <time>2014-11-23T09:18:00Z</time>
      </trkpt>
      <trkpt lat="49.89515" lon="2.3359">
        <ele>24</ele>
        <time>2014-11-23T09:18:11Z</time>
      </trkpt>
      <trkpt lat="49.89523" lon="2.33578">
        <ele>23</ele>
        <time>2014-11-23T09:18:22Z</time>
      </trkpt>
      <trkpt lat="49.89531" lon="2.33566">
        <ele>23</ele>
        <time>2014-11-23T09:18:33Z</time>
      </trkpt>
      <trkpt lat="49.89537" lon="2.33554">
        <ele>22</ele>
        <time>2014-11-23T09:18:44Z</time>
      </trkpt>
      <trkpt lat="49.89546" lon="2.33539">
        <ele>24</ele>
        <time>2014-11-23T09:18:57Z</time>
      </trkpt>
      <trkpt lat="49.89553" lon="2.3353">
        <ele>25</ele>
        <time>2014-11-23T09:19:06Z</time>
      </trkpt>
      <trkpt lat="49.89562" lon="2.33519">
        <ele>23</ele>
        <time>2014-11-23T09:19:17Z</time>
      </trkpt>
      <trkpt lat="49.89571" lon="2.33506">
        <ele>23</ele>
        <time>2014-11-23T09:19:28Z</time>
      </trkpt>
      <trkpt lat="49.89578" lon="2.33492">
        <ele>24</ele>
        <time>2014-11-23T09:19:39Z</time>
      </trkpt>
      <trkpt lat="49.89581" lon="2.33474">
        <ele>26</ele>
        <time>2014-11-23T09:19:52Z</time>
      </trkpt>
      <trkpt lat="49.89586" lon="2.33462">
        <ele>26</ele>
        <time>2014-11-23T09:20:01Z</time>
      </trkpt>
      <trkpt lat="49.89594" lon="2.33452">
        <ele>24</ele>
        <time>2014-11-23T09:20:12Z</time>
      </trkpt>
      <trkpt lat="49.89602" lon="2.3344">
        <ele>23</ele>
        <time>2014-11-23T09:20:23Z</time>
      </trkpt>
      <trkpt lat="49.89606" lon="2.33425">
        <ele>20</ele>
        <time>2014-11-23T09:20:34Z</time>
      </trkpt>
      <trkpt lat="49.89613" lon="2.33413">
        <ele>20</ele>
        <time>2014-11-23T09:20:45Z</time>
      </trkpt>
      <trkpt lat="49.89618" lon="2.33396">
        <ele>21</ele>
        <time>2014-11-23T09:20:56Z</time>
      </trkpt>
      <trkpt lat="49.89624" lon="2.33379">
        <ele>23</ele>
        <time>2014-11-23T09:21:07Z</time>
      </trkpt>
      <trkpt lat="49.89632" lon="2.33365">
        <ele>23</ele>
        <time>2014-11-23T09:21:18Z</time>
      </trkpt>
      <trkpt lat="49.89642" lon="2.33354">
        <ele>22</ele>
        <time>2014-11-23T09:21:29Z</time>
      </trkpt>
      <trkpt lat="49.89652" lon="2.33347">
        <ele>22</ele>
        <time>2014-11-23T09:21:40Z</time>
      </trkpt>
      <trkpt lat="49.89662" lon="2.33344">
        <ele>23</ele>
        <time>2014-11-23T09:21:51Z</time>
      </trkpt>
      <trkpt lat="49.89673" lon="2.33336">
        <ele>23</ele>
        <time>2014-11-23T09:22:02Z</time>
      </trkpt>
      <trkpt lat="49.89685" lon="2.33325">
        <ele>25</ele>
        <time>2014-11-23T09:22:13Z</time>
      </trkpt>
      <trkpt lat="49.89697" lon="2.33318">
        <ele>24</ele>
        <time>2014-11-23T09:22:26Z</time>
      </trkpt>
      <trkpt lat="49.89703" lon="2.33313">
        <ele>21</ele>
        <time>2014-11-23T09:22:35Z</time>
      </trkpt>
      <trkpt lat="49.89713" lon="2.33305">
        <ele>22</ele>
        <time>2014-11-23T09:22:47Z</time>
      </trkpt>
      <trkpt lat="49.89719" lon="2.33299">
        <ele>19</ele>
        <time>2014-11-23T09:22:57Z</time>
      </trkpt>
      <trkpt lat="49.89728" lon="2.33291">
        <ele>18</ele>
        <time>2014-11-23T09:23:08Z</time>
      </trkpt>
      <trkpt lat="49.89744" lon="2.3328">
        <ele>20</ele>
        <time>2014-11-23T09:23:23Z</time>
      </trkpt>
      <trkpt lat="49.89751" lon="2.33275">
        <ele>20</ele>
        <time>2014-11-23T09:23:32Z</time>
      </trkpt>
      <trkpt lat="49.89764" lon="2.33267">
        <ele>24</ele>
        <time>2014-11-23T09:23:43Z</time>
      </trkpt>
      <trkpt lat="49.89775" lon="2.33262">
        <ele>29</ele>
        <time>2014-11-23T09:23:53Z</time>
      </trkpt>
      <trkpt lat="49.89785" lon="2.33256">
        <ele>30</ele>
        <time>2014-11-23T09:24:03Z</time>
      </trkpt>
      <trkpt lat="49.89797" lon="2.33249">
        <ele>27</ele>
        <time>2014-11-23T09:24:14Z</time>
      </trkpt>
      <trkpt lat="49.89807" lon="2.33241">
        <ele>27</ele>
        <time>2014-11-23T09:24:25Z</time>
      </trkpt>
      <trkpt lat="49.89817" lon="2.33234">
        <ele>28</ele>
        <time>2014-11-23T09:24:36Z</time>
      </trkpt>
      <trkpt lat="49.89825" lon="2.33225">
        <ele>31</ele>
        <time>2014-11-23T09:24:47Z</time>
      </trkpt>
      <trkpt lat="49.89833" lon="2.3321">
        <ele>31</ele>
        <time>2014-11-23T09:24:58Z</time>
      </trkpt>
      <trkpt lat="49.89836" lon="2.3319">
        <ele>31</ele>
        <time>2014-11-23T09:25:09Z</time>
      </trkpt>
      <trkpt lat="49.89838" lon="2.33169">
        <ele>31</ele>
        <time>2014-11-23T09:25:20Z</time>
      </trkpt>
      <trkpt lat="49.8984" lon="2.33151">
        <ele>29</ele>
        <time>2014-11-23T09:25:31Z</time>
      </trkpt>
      <trkpt lat="49.89842" lon="2.3313">
        <ele>31</ele>
        <time>2014-11-23T09:25:42Z</time>
      </trkpt>
      <trkpt lat="49.89849" lon="2.33112">
        <ele>33</ele>
        <time>2014-11-23T09:25:53Z</time>
      </trkpt>
      <trkpt lat="49.89848" lon="2.33089">
        <ele>35</ele>
        <time>2014-11-23T09:26:05Z</time>
      </trkpt>
      <trkpt lat="49.8985" lon="2.33077">
        <ele>32</ele>
        <time>2014-11-23T09:26:15Z</time>
      </trkpt>
      <trkpt lat="49.89851" lon="2.33056">
        <ele>34</ele>
        <time>2014-11-23T09:26:26Z</time>
      </trkpt>
      <trkpt lat="49.89849" lon="2.33031">
        <ele>35</ele>
        <time>2014-11-23T09:26:39Z</time>
      </trkpt>
      <trkpt lat="49.89852" lon="2.33012">
        <ele>32</ele>
        <time>2014-11-23T09:26:53Z</time>
      </trkpt>
      <trkpt lat="49.89854" lon="2.32989">
        <ele>33</ele>
        <time>2014-11-23T09:27:06Z</time>
      </trkpt>
      <trkpt lat="49.89856" lon="2.32982">
        <ele>33</ele>
        <time>2014-11-23T09:27:10Z</time>
      </trkpt>
      <trkpt lat="49.89857" lon="2.32961">
        <ele>35</ele>
        <time>2014-11-23T09:27:22Z</time>
      </trkpt>
      <trkpt lat="49.89858" lon="2.32944">
        <ele>36</ele>
        <time>2014-11-23T09:27:32Z</time>
      </trkpt>
      <trkpt lat="49.8986" lon="2.32926">
        <ele>34</ele>
        <time>2014-11-23T09:27:43Z</time>
      </trkpt>
      <trkpt lat="49.89859" lon="2.32903">
        <ele>34</ele>
        <time>2014-11-23T09:27:55Z</time>
      </trkpt>
      <trkpt lat="49.89863" lon="2.32887">
        <ele>32</ele>
        <time>2014-11-23T09:28:05Z</time>
      </trkpt>
      <trkpt lat="49.8987" lon="2.32873">
        <ele>30</ele>
        <time>2014-11-23T09:28:16Z</time>
      </trkpt>
      <trkpt lat="49.89875" lon="2.32859">
        <ele>27</ele>
        <time>2014-11-23T09:28:27Z</time>
      </trkpt>
      <trkpt lat="49.89881" lon="2.32847">
        <ele>28</ele>
        <time>2014-11-23T09:28:38Z</time>
      </trkpt>
      <trkpt lat="49.89888" lon="2.32835">
        <ele>29</ele>
        <time>2014-11-23T09:28:49Z</time>
      </trkpt>
      <trkpt lat="49.89894" lon="2.32819">
        <ele>29</ele>
        <time>2014-11-23T09:29:00Z</time>
      </trkpt>
      <trkpt lat="49.89901" lon="2.32816">
        <ele>27</ele>
        <time>2014-11-23T09:29:12Z</time>
      </trkpt>
      <trkpt lat="49.89906" lon="2.32819">
        <ele>26</ele>
        <time>2014-11-23T09:29:22Z</time>
      </trkpt>
      <trkpt lat="49.89909" lon="2.32819">
        <ele>24</ele>
        <time>2014-11-23T09:29:33Z</time>
      </trkpt>
      <trkpt lat="49.89914" lon="2.32822">
        <ele>24</ele>
        <time>2014-11-23T09:29:48Z</time>
      </trkpt>
    </trkseg>
  </trk>
</gpx>